createdAt,value
2022-10-19T00:00:03.358Z,101346.92
2022-10-19T00:03:13.183Z,101344.34
2022-10-19T00:06:25.734Z,101340.59
2022-10-19T00:09:22.769Z,101338.14
2022-10-19T00:12:17.524Z,101341.57
2022-10-19T00:15:13.306Z,101336.48
2022-10-19T00:18:07.299Z,101339.71
2022-10-19T00:21:08.817Z,101343.70
2022-10-19T00:24:03.066Z,101343.73
2022-10-19T00:26:57.142Z,101338.85
2022-10-19T00:29:52.687Z,101337.82
2022-10-19T00:32:47.035Z,101336.26
2022-10-19T00:35:44.124Z,101330.51
2022-10-19T00:38:38.312Z,101328.45
2022-10-19T00:41:33.521Z,101332.73
2022-10-19T00:45:06.022Z,101326.74
2022-10-19T00:48:00.082Z,101325.38
2022-10-19T00:50:54.530Z,101317.36
2022-10-19T00:53:48.487Z,101315.23
2022-10-19T00:56:44.613Z,101313.86
2022-10-19T00:59:38.633Z,101308.81
2022-10-19T01:02:32.934Z,101311.88
2022-10-19T01:05:27.164Z,101309.98
2022-10-19T01:08:21.283Z,101311.98
2022-10-19T01:11:24.865Z,101313.52
2022-10-19T01:14:34.056Z,101312.84
2022-10-19T01:17:34.640Z,101313.61
2022-10-19T01:21:02.791Z,101317.05
2022-10-19T01:24:43.741Z,101308.73
2022-10-19T01:27:49.096Z,101308.23
2022-10-19T01:30:48.937Z,101301.73
2022-10-19T01:33:48.571Z,101301.32
2022-10-19T01:36:44.693Z,101299.30
2022-10-19T01:39:40.047Z,101297.52
2022-10-19T01:42:37.137Z,101291.86
2022-10-19T01:45:33.211Z,101292.88
2022-10-19T01:48:26.592Z,101286.88
2022-10-19T01:51:23.028Z,101288.48
2022-10-19T01:54:18.207Z,101278.30
2022-10-19T01:57:15.180Z,101271.30
2022-10-19T02:00:12.041Z,101267.52
2022-10-19T02:03:06.208Z,101266.89
2022-10-19T02:06:00.213Z,101266.63
2022-10-19T02:08:56.807Z,101267.69
2022-10-19T02:11:56.147Z,101259.59
2022-10-19T02:14:54.530Z,101262.42
2022-10-19T02:17:51.434Z,101260.53
2022-10-19T02:20:45.464Z,101261.67
2022-10-19T02:23:39.476Z,101262.58
2022-10-19T02:26:33.546Z,101262.27
2022-10-19T02:29:27.854Z,101257.80
2022-10-19T02:32:22.110Z,101261.10
2022-10-19T02:35:16.584Z,101263.77
2022-10-19T02:38:11.873Z,101264.73
2022-10-19T02:41:12.587Z,101267.48
2022-10-19T02:44:10.716Z,101261.82
2022-10-19T02:47:06.400Z,101262.05
2022-10-19T02:50:00.451Z,101256.43
2022-10-19T02:52:54.635Z,101255.04
2022-10-19T02:55:49.635Z,101253.87
2022-10-19T02:58:43.645Z,101252.64
2022-10-19T03:01:37.728Z,101253.86
2022-10-19T03:04:32.003Z,101255.95
2022-10-19T03:07:26.053Z,101259.09
2022-10-19T03:10:20.342Z,101256.62
2022-10-19T03:13:14.361Z,101252.18
2022-10-19T03:16:13.201Z,101250.09
2022-10-19T03:19:07.241Z,101253.40
2022-10-19T03:22:01.256Z,101249.20
2022-10-19T03:24:55.308Z,101251.08
2022-10-19T03:27:49.362Z,101248.92
2022-10-19T03:30:43.416Z,101251.98
2022-10-19T03:33:37.768Z,101253.48
2022-10-19T03:36:33.726Z,101252.50
2022-10-19T03:39:27.739Z,101252.41
2022-10-19T03:42:21.882Z,101254.77
2022-10-19T03:45:16.247Z,101251.30
2022-10-19T03:48:10.853Z,101249.91
2022-10-19T03:51:06.536Z,101247.45
2022-10-19T03:54:02.018Z,101243.07
2022-10-19T03:56:56.090Z,101240.93
2022-10-19T03:59:50.160Z,101245.96
2022-10-19T04:02:44.453Z,101245.99
2022-10-19T04:05:38.870Z,101244.44
2022-10-19T04:08:33.455Z,101241.13
2022-10-19T04:11:29.331Z,101237.30
2022-10-19T04:14:31.877Z,101244.06
2022-10-19T04:17:31.061Z,101236.96
2022-10-19T04:20:25.171Z,101232.27
2022-10-19T04:23:19.563Z,101233.58
2022-10-19T04:26:13.829Z,101232.63
2022-10-19T04:29:08.358Z,101229.34
2022-10-19T04:32:04.199Z,101231.80
2022-10-19T04:34:58.378Z,101233.80
2022-10-19T04:37:52.419Z,101231.67
2022-10-19T04:40:47.773Z,101227.98
2022-10-19T04:43:49.294Z,101226.20
2022-10-19T04:46:44.679Z,101227.08
2022-10-19T04:49:46.417Z,101226.54
2022-10-19T04:52:40.700Z,101228.35
2022-10-19T04:55:34.866Z,101236.00
2022-10-19T04:58:29.054Z,101237.40
2022-10-19T05:01:24.117Z,101236.36
2022-10-19T05:04:18.511Z,101236.00
2022-10-19T05:07:12.535Z,101240.27
2022-10-19T05:10:07.246Z,101238.50
2022-10-19T05:13:03.203Z,101241.86
2022-10-19T05:16:05.328Z,101241.89
2022-10-19T05:18:59.950Z,101236.94
2022-10-19T05:21:54.293Z,101236.20
2022-10-19T05:24:48.330Z,101235.70
2022-10-19T05:27:43.333Z,101242.46
2022-10-19T05:30:38.897Z,101246.33
2022-10-19T05:33:33.000Z,101241.23
2022-10-19T05:36:28.638Z,101238.37
2022-10-19T05:39:22.923Z,101237.13
2022-10-19T05:42:16.958Z,101234.30
2022-10-19T05:45:12.769Z,101234.80
2022-10-19T05:48:09.744Z,101237.10
2022-10-19T05:51:05.366Z,101241.73
2022-10-19T05:53:59.931Z,101239.73
2022-10-19T05:56:54.111Z,101236.88
2022-10-19T05:59:48.092Z,101242.77
2022-10-19T06:02:42.172Z,101244.36
2022-10-19T06:05:38.382Z,101249.45
2022-10-19T06:08:30.863Z,101246.86
2022-10-19T06:11:26.511Z,101245.23
2022-10-19T06:14:20.845Z,101242.09
2022-10-19T06:17:16.404Z,101244.10
2022-10-19T06:20:13.514Z,101248.29
2022-10-19T06:23:08.003Z,101249.85
2022-10-19T06:26:03.161Z,101251.92
2022-10-19T06:29:00.807Z,101254.82
2022-10-19T06:31:56.332Z,101254.52
2022-10-19T06:34:53.040Z,101253.01
2022-10-19T06:37:50.361Z,101257.95
2022-10-19T06:40:44.594Z,101260.19
2022-10-19T06:43:38.782Z,101263.61
2022-10-19T06:46:34.105Z,101271.27
2022-10-19T06:49:28.577Z,101274.19
2022-10-19T06:52:22.721Z,101275.08
2022-10-19T06:55:18.148Z,101269.92
2022-10-19T06:58:12.406Z,101278.95
2022-10-19T07:01:07.766Z,101280.21
2022-10-19T07:04:02.796Z,101280.48
2022-10-19T07:06:56.968Z,101279.73
2022-10-19T07:09:53.654Z,101285.06
2022-10-19T07:12:47.802Z,101290.88
2022-10-19T07:15:42.777Z,101293.16
2022-10-19T07:18:37.515Z,101300.81
2022-10-19T07:21:32.229Z,101295.11
2022-10-19T07:24:26.882Z,101290.95
2022-10-19T07:27:20.988Z,101296.75
2022-10-19T07:30:15.629Z,101294.78
2022-10-19T07:33:09.686Z,101299.09
2022-10-19T07:36:05.879Z,101306.08
2022-10-19T07:39:00.015Z,101310.42
2022-10-19T07:41:54.291Z,101303.99
2022-10-19T07:44:48.470Z,101301.48
2022-10-19T07:47:42.666Z,101305.52
2022-10-19T07:50:36.921Z,101313.91
2022-10-19T07:53:31.461Z,101317.62
2022-10-19T07:56:27.433Z,101314.33
2022-10-19T07:59:21.599Z,101314.73
2022-10-19T08:02:18.321Z,101312.73
2022-10-19T08:05:13.463Z,101310.25
2022-10-19T08:08:08.142Z,101308.50
2022-10-19T08:11:09.470Z,101313.42
2022-10-19T08:14:04.048Z,101315.02
2022-10-19T08:16:58.544Z,101315.42
2022-10-19T08:19:52.759Z,101320.74
2022-10-19T08:22:46.977Z,101328.21
2022-10-19T08:25:41.331Z,101330.22
2022-10-19T08:28:35.503Z,101331.45
2022-10-19T08:31:29.655Z,101323.66
2022-10-19T08:34:23.901Z,101335.05
2022-10-19T08:37:26.291Z,101340.75
2022-10-19T08:40:30.450Z,101337.21
2022-10-19T08:43:28.223Z,101335.59
2022-10-19T08:46:24.932Z,101339.35
2022-10-19T08:49:22.698Z,101343.42
2022-10-19T08:52:19.796Z,101342.88
2022-10-19T08:55:19.664Z,101342.70
2022-10-19T08:58:29.885Z,101344.77
2022-10-19T09:01:37.587Z,101348.05
2022-10-19T09:04:34.114Z,101349.00
2022-10-19T09:07:32.602Z,101353.13
2022-10-19T09:10:28.414Z,101347.98
2022-10-19T09:13:36.451Z,101357.45
2022-10-19T09:16:42.894Z,101357.48
2022-10-19T09:19:37.010Z,101360.29
2022-10-19T09:22:34.518Z,101362.02
2022-10-19T09:25:29.516Z,101366.77
2022-10-19T09:28:44.560Z,101367.38
2022-10-19T09:31:40.935Z,101369.14
2022-10-19T09:34:37.811Z,101369.02
2022-10-19T09:37:32.459Z,101372.00
2022-10-19T09:40:29.103Z,101369.23
2022-10-19T09:43:23.946Z,101369.97
2022-10-19T09:46:26.234Z,101377.20
2022-10-19T09:49:20.755Z,101378.45
2022-10-19T09:52:38.186Z,101383.03
2022-10-19T09:55:38.864Z,101387.77
2022-10-19T09:58:33.685Z,101395.14
2022-10-19T10:01:41.457Z,101400.65
2022-10-19T10:04:37.257Z,101410.91
2022-10-19T10:07:36.975Z,101412.07
2022-10-19T10:10:34.712Z,101423.69
2022-10-19T10:13:30.030Z,101434.41
2022-10-19T10:16:24.952Z,101436.17
2022-10-19T10:19:21.488Z,101436.07
2022-10-19T10:22:27.063Z,101438.17
2022-10-19T10:25:22.372Z,101441.19
2022-10-19T10:28:24.462Z,101445.83
2022-10-19T10:31:18.854Z,101448.27
2022-10-19T10:34:23.149Z,101448.90
2022-10-19T10:37:35.269Z,101447.73
2022-10-19T10:40:32.237Z,101450.46
2022-10-19T10:43:30.675Z,101443.33
2022-10-19T10:46:27.624Z,101447.20
2022-10-19T10:49:26.096Z,101453.21
2022-10-19T10:52:21.356Z,101450.72
2022-10-19T10:55:21.199Z,101449.08
2022-10-19T10:58:19.561Z,101451.20
2022-10-19T11:01:19.768Z,101453.11
2022-10-19T11:04:16.790Z,101453.30
2022-10-19T11:07:18.388Z,101451.69
2022-10-19T11:10:21.842Z,101457.23
2022-10-19T11:13:19.378Z,101452.41
2022-10-19T11:16:18.195Z,101456.32
2022-10-19T11:19:18.875Z,101449.35
2022-10-19T11:22:26.377Z,101457.07
2022-10-19T11:25:34.220Z,101450.27
2022-10-19T11:28:41.405Z,101452.14
2022-10-19T11:31:44.608Z,101455.77
2022-10-19T11:34:50.003Z,101454.86
2022-10-19T11:38:17.434Z,101463.86
2022-10-19T11:41:18.542Z,101461.39
2022-10-19T11:44:36.742Z,101468.19
2022-10-19T11:47:59.916Z,101468.04
2022-10-19T11:50:58.968Z,101460.77
2022-10-19T11:54:16.693Z,101459.84
2022-10-19T11:57:18.428Z,101460.41
2022-10-19T12:00:37.606Z,101459.07
2022-10-19T12:03:58.528Z,101458.83
2022-10-19T12:07:00.032Z,101454.83
2022-10-19T12:09:59.316Z,101454.29
2022-10-19T12:12:54.014Z,101460.23
2022-10-19T12:15:49.717Z,101458.99
2022-10-19T12:18:46.157Z,101460.45
2022-10-19T12:21:45.655Z,101462.84
2022-10-19T12:24:42.303Z,101468.30
2022-10-19T12:27:38.684Z,101462.40
2022-10-19T12:30:33.086Z,101457.46
2022-10-19T12:33:30.805Z,101451.58
2022-10-19T12:36:30.557Z,101447.34
2022-10-19T12:39:31.762Z,101452.86
2022-10-19T12:42:29.468Z,101455.86
2022-10-19T12:45:36.180Z,101452.06
2022-10-19T12:48:39.584Z,101451.17
2022-10-19T12:51:56.482Z,101447.00
2022-10-19T12:55:05.902Z,101450.44
2022-10-19T12:58:36.729Z,101455.52
2022-10-19T13:01:44.734Z,101460.67
2022-10-19T13:04:44.295Z,101462.14
2022-10-19T13:07:58.720Z,101468.16
2022-10-19T13:16:35.296Z,101485.66
2022-10-19T13:20:51.203Z,101488.46
2022-10-19T13:24:00.967Z,101488.66
2022-10-19T13:27:49.290Z,101491.42
2022-10-19T13:31:16.618Z,101489.33
2022-10-19T13:34:15.098Z,101493.00
2022-10-19T13:37:14.237Z,101494.56
2022-10-19T13:40:24.814Z,101493.89
2022-10-19T13:43:23.441Z,101495.58
2022-10-19T13:46:19.878Z,101497.61
2022-10-19T13:49:45.272Z,101498.65
2022-10-19T13:57:06.206Z,101496.05
2022-10-19T14:00:14.764Z,101496.92
2022-10-19T14:03:20.722Z,101508.77
2022-10-19T14:06:28.637Z,101511.41
2022-10-19T14:10:00.102Z,101517.90
2022-10-19T14:12:54.679Z,101522.58
2022-10-19T14:16:01.629Z,101519.31
2022-10-19T14:19:15.426Z,101524.24
2022-10-19T14:22:27.312Z,101525.85
2022-10-19T14:25:27.064Z,101536.25
2022-10-19T14:28:28.939Z,101535.41
2022-10-19T14:31:40.232Z,101530.69
2022-10-19T14:34:43.649Z,101538.05
2022-10-19T14:37:38.521Z,101538.98
2022-10-19T14:40:34.702Z,101536.59
2022-10-19T14:43:30.057Z,101535.46
2022-10-19T14:46:26.278Z,101541.80
2022-10-19T14:49:19.074Z,101551.54
2022-10-19T14:52:14.715Z,101552.73
2022-10-19T14:55:17.630Z,101556.50
2022-10-19T14:58:16.817Z,101560.30
2022-10-19T15:01:11.040Z,101564.34
2022-10-19T15:04:05.347Z,101571.77
2022-10-19T15:06:59.754Z,101574.70
2022-10-19T15:09:58.131Z,101582.63
2022-10-19T15:12:52.802Z,101584.93
2022-10-19T15:15:47.339Z,101590.49
2022-10-19T15:18:49.494Z,101592.04
2022-10-19T15:21:44.395Z,101594.09
2022-10-19T15:24:40.475Z,101593.85
2022-10-19T15:27:36.989Z,101599.43
2022-10-19T15:30:34.912Z,101603.49
2022-10-19T15:33:29.761Z,101602.30
2022-10-19T15:36:27.635Z,101608.83
2022-10-19T15:39:37.044Z,101611.57
2022-10-19T15:42:41.022Z,101612.49
2022-10-19T15:45:37.951Z,101616.86
2022-10-19T15:48:50.026Z,101617.16
2022-10-19T15:51:49.400Z,101619.86
2022-10-19T15:54:44.012Z,101621.69
2022-10-19T15:57:39.518Z,101627.95
2022-10-19T16:00:34.672Z,101633.75
2022-10-19T16:03:29.007Z,101638.82
2022-10-19T16:06:24.859Z,101639.59
2022-10-19T16:09:22.133Z,101642.94
2022-10-19T16:12:16.694Z,101651.91
2022-10-19T16:15:16.632Z,101658.67
2022-10-19T16:18:12.582Z,101660.52
2022-10-19T16:21:07.153Z,101663.80
2022-10-19T16:24:02.848Z,101661.89
2022-10-19T16:26:57.089Z,101670.69
2022-10-19T16:29:51.616Z,101672.89
2022-10-19T16:32:47.323Z,101672.08
2022-10-19T16:35:43.077Z,101677.27
2022-10-19T16:38:37.612Z,101680.58
2022-10-19T16:41:32.045Z,101684.55
2022-10-19T16:44:26.344Z,101684.08
2022-10-19T16:47:20.645Z,101689.23
2022-10-19T16:50:15.873Z,101698.96
2022-10-19T16:53:11.257Z,101698.89
2022-10-19T16:56:12.491Z,101704.98
2022-10-19T16:59:18.858Z,101708.09
2022-10-19T17:02:23.253Z,101716.59
2022-10-19T17:05:25.934Z,101719.21
2022-10-19T17:09:02.391Z,101716.21
2022-10-19T17:11:53.239Z,101719.23
2022-10-19T17:14:47.717Z,101724.56
2022-10-19T17:17:44.116Z,101730.54
2022-10-19T17:20:41.374Z,101736.80
2022-10-19T17:23:36.060Z,101742.10
2022-10-19T17:26:31.920Z,101744.05
2022-10-19T17:29:26.333Z,101750.09
2022-10-19T17:32:21.001Z,101750.98
2022-10-19T17:35:15.336Z,101752.48
2022-10-19T17:38:09.654Z,101754.05
2022-10-19T17:41:09.387Z,101758.11
2022-10-19T17:44:03.771Z,101758.81
2022-10-19T17:46:58.454Z,101763.73
2022-10-19T17:49:52.952Z,101763.67
2022-10-19T17:52:47.146Z,101765.42
2022-10-19T17:55:42.552Z,101769.30
2022-10-19T17:58:40.268Z,101773.41
2022-10-19T18:01:34.673Z,101773.35
2022-10-19T18:04:29.259Z,101775.55
2022-10-19T18:07:25.751Z,101780.52
2022-10-19T18:10:20.420Z,101782.79
2022-10-19T18:13:15.177Z,101779.37
2022-10-19T18:16:11.672Z,101781.53
2022-10-19T18:19:06.775Z,101786.48
2022-10-19T18:22:01.051Z,101788.54
2022-10-19T18:24:55.192Z,101790.14
2022-10-19T18:27:49.719Z,101792.23
2022-10-19T18:30:45.353Z,101796.06
2022-10-19T18:33:40.235Z,101794.96
2022-10-19T18:36:36.134Z,101793.70
2022-10-19T18:39:31.773Z,101793.70
2022-10-19T18:42:26.169Z,101791.58
2022-10-19T18:45:20.543Z,101795.86
2022-10-19T18:48:17.509Z,101795.70
2022-10-19T18:51:13.236Z,101794.89
2022-10-19T18:54:08.060Z,101796.00
2022-10-19T18:57:02.998Z,101794.96
2022-10-19T18:59:58.642Z,101794.99
2022-10-19T19:02:58.090Z,101794.48
2022-10-19T19:05:56.122Z,101791.41
2022-10-19T19:08:56.408Z,101791.04
2022-10-19T19:11:51.623Z,101797.56
2022-10-19T19:14:49.543Z,101803.00
2022-10-19T19:17:43.975Z,101805.84
2022-10-19T19:20:40.899Z,101810.71
2022-10-19T19:23:43.771Z,101816.17
2022-10-19T19:26:41.333Z,101816.31
2022-10-19T19:29:38.634Z,101815.62
2022-10-19T19:32:33.041Z,101817.69
2022-10-19T19:35:27.719Z,101822.58
2022-10-19T19:38:21.847Z,101824.55
2022-10-19T19:41:17.844Z,101830.21
2022-10-19T19:44:12.137Z,101834.37
2022-10-19T19:47:08.519Z,101834.72
2022-10-19T19:50:03.106Z,101837.24
2022-10-19T19:52:57.517Z,101844.54
2022-10-19T19:55:51.828Z,101843.69
2022-10-19T19:58:46.559Z,101845.17
2022-10-19T20:01:41.028Z,101844.71
2022-10-19T20:04:37.197Z,101847.73
2022-10-19T20:07:32.228Z,101849.73
2022-10-19T20:10:26.735Z,101851.80
2022-10-19T20:13:21.154Z,101855.73
2022-10-19T20:16:17.737Z,101862.48
2022-10-19T20:19:14.033Z,101869.02
2022-10-19T20:22:08.664Z,101871.66
2022-10-19T20:25:03.277Z,101876.66
2022-10-19T20:27:57.571Z,101876.29
2022-10-19T20:31:01.143Z,101877.79
2022-10-19T20:34:01.230Z,101876.42
2022-10-19T20:36:55.639Z,101873.69
2022-10-19T20:39:50.215Z,101872.09
2022-10-19T20:42:44.730Z,101875.63
2022-10-19T20:45:39.067Z,101878.73
2022-10-19T20:48:33.671Z,101879.81
2022-10-19T20:51:31.916Z,101878.37
2022-10-19T20:54:27.318Z,101876.58
2022-10-19T20:57:21.844Z,101876.96
2022-10-19T21:00:18.844Z,101882.73
2022-10-19T21:03:13.175Z,101885.94
2022-10-19T21:06:09.647Z,101883.73
2022-10-19T21:09:04.049Z,101882.35
2022-10-19T21:11:58.756Z,101881.67
2022-10-19T21:14:53.444Z,101879.77
2022-10-19T21:17:48.659Z,101878.29
2022-10-19T21:20:43.047Z,101875.45
2022-10-19T21:23:37.258Z,101870.71
2022-10-19T21:26:32.801Z,101873.45
2022-10-19T21:29:27.325Z,101872.80
2022-10-19T21:32:22.087Z,101872.23
2022-10-19T21:35:16.363Z,101869.27
2022-10-19T21:38:10.524Z,101871.06
2022-10-19T21:41:05.745Z,101870.67
2022-10-19T21:44:00.096Z,101871.00
2022-10-19T21:46:54.794Z,101873.20
2022-10-19T21:49:49.465Z,101874.58
2022-10-19T21:52:44.067Z,101868.87
2022-10-19T21:55:39.117Z,101870.02
2022-10-19T21:58:33.286Z,101870.00
2022-10-19T22:01:28.800Z,101875.48
2022-10-19T22:08:15.339Z,101882.05
2022-10-19T22:11:13.340Z,101885.96
2022-10-19T22:14:07.912Z,101889.33
2022-10-19T22:17:01.878Z,101891.77
2022-10-19T22:19:56.453Z,101891.58
2022-10-19T22:22:52.772Z,101892.54
2022-10-19T22:25:51.559Z,101901.69
2022-10-19T22:28:46.100Z,101901.86
2022-10-19T22:31:40.455Z,101902.48
2022-10-19T22:34:36.037Z,101905.38
2022-10-19T22:37:30.676Z,101908.09
2022-10-19T22:40:25.130Z,101907.64
2022-10-19T22:43:19.449Z,101908.09
2022-10-19T22:46:13.949Z,101906.02
2022-10-19T22:52:09.334Z,101909.27
2022-10-19T22:55:03.552Z,101914.04
2022-10-19T22:57:58.455Z,101922.42
2022-10-19T23:01:04.468Z,101928.95
2022-10-19T23:03:58.812Z,101934.71
2022-10-19T23:06:53.189Z,101931.28
2022-10-19T23:09:47.287Z,101930.81
2022-10-19T23:12:41.522Z,101931.92
2022-10-19T23:15:35.606Z,101936.42
2022-10-19T23:18:30.031Z,101936.48
2022-10-19T23:21:24.228Z,101940.49
2022-10-19T23:24:18.479Z,101940.32
2022-10-19T23:27:13.601Z,101939.70
2022-10-19T23:30:09.979Z,101940.27
2022-10-19T23:33:04.121Z,101936.98
2022-10-19T23:36:02.173Z,101942.59
2022-10-19T23:38:56.803Z,101945.80
2022-10-19T23:41:51.373Z,101950.13
2022-10-19T23:44:45.981Z,101957.64
2022-10-19T23:47:40.161Z,101958.96
2022-10-19T23:50:34.701Z,101967.19
2022-10-19T23:53:29.202Z,101968.54
2022-10-19T23:56:24.672Z,101973.10
2022-10-19T23:59:19.389Z,101973.98
